createdAt,value
2023-09-14T00:01:01.630Z,31.21
2023-09-14T00:03:30.821Z,32.89
2023-09-14T00:05:59.592Z,31.33
2023-09-14T00:08:31.394Z,31.85
2023-09-14T00:11:01.447Z,31.60
2023-09-14T00:13:29.680Z,31.26
2023-09-14T00:15:58.624Z,31.47
2023-09-14T00:18:28.524Z,31.34
2023-09-14T00:20:58.706Z,31.46
2023-09-14T00:23:27.209Z,31.48
2023-09-14T00:25:57.345Z,32.15
2023-09-14T00:28:25.758Z,31.52
2023-09-14T00:30:55.034Z,31.67
2023-09-14T00:33:24.337Z,31.86
2023-09-14T00:35:53.200Z,31.73
2023-09-14T00:38:21.582Z,31.89
2023-09-14T00:40:51.969Z,31.93
2023-09-14T00:43:21.946Z,32.51
2023-09-14T00:45:51.235Z,32.04
2023-09-14T00:48:19.598Z,31.80
2023-09-14T00:50:48.883Z,32.18
2023-09-14T00:53:18.977Z,32.30
2023-09-14T00:55:48.367Z,32.13
2023-09-14T00:58:17.763Z,31.67
2023-09-14T01:00:48.322Z,32.18
2023-09-14T01:03:17.088Z,31.68
2023-09-14T01:05:46.903Z,32.13
2023-09-14T01:08:15.377Z,31.66
2023-09-14T01:10:43.989Z,31.81
2023-09-14T01:13:16.483Z,32.44
2023-09-14T01:15:50.578Z,32.48
2023-09-14T01:18:22.919Z,32.56
2023-09-14T01:21:25.904Z,33.11
2023-09-14T01:23:59.573Z,32.46
2023-09-14T01:26:30.327Z,32.28
2023-09-14T01:29:00.400Z,31.86
2023-09-14T01:31:30.157Z,31.84
2023-09-14T01:33:58.880Z,31.50
2023-09-14T01:36:34.854Z,32.27
2023-09-14T01:39:05.392Z,32.04
2023-09-14T01:41:36.129Z,32.43
2023-09-14T01:44:05.264Z,32.03
2023-09-14T01:46:34.809Z,31.86
2023-09-14T01:49:03.285Z,31.43
2023-09-14T01:51:32.108Z,31.37
2023-09-14T01:54:00.418Z,31.30
2023-09-14T01:56:29.016Z,31.41
2023-09-14T01:58:58.571Z,31.93
2023-09-14T02:01:27.267Z,31.36
2023-09-14T02:03:56.316Z,31.26
2023-09-14T02:06:25.038Z,31.33
2023-09-14T02:08:53.346Z,31.27
2023-09-14T02:11:21.877Z,31.23
2023-09-14T02:13:50.360Z,31.39
2023-09-14T02:16:20.463Z,31.99
2023-09-14T02:18:48.913Z,31.26
2023-09-14T02:21:18.382Z,31.19
2023-09-14T02:23:46.536Z,31.20
2023-09-14T02:26:15.138Z,31.30
2023-09-14T02:28:43.459Z,31.27
2023-09-14T02:31:13.105Z,31.28
2023-09-14T02:33:42.951Z,31.99
2023-09-14T02:36:11.698Z,31.29
2023-09-14T02:38:39.980Z,31.33
2023-09-14T02:41:08.548Z,31.34
2023-09-14T02:43:36.794Z,31.41
2023-09-14T02:46:05.385Z,31.42
2023-09-14T02:48:33.950Z,31.40
2023-09-14T02:51:04.318Z,32.02
2023-09-14T02:53:32.625Z,31.56
2023-09-14T02:56:01.124Z,31.43
2023-09-14T02:58:29.393Z,31.36
2023-09-14T03:00:58.100Z,31.54
2023-09-14T03:03:26.469Z,31.59
2023-09-14T03:05:55.795Z,31.53
2023-09-14T03:08:25.346Z,32.24
2023-09-14T03:10:54.227Z,31.70
2023-09-14T03:13:22.517Z,31.63
2023-09-14T03:15:55.354Z,32.35
2023-09-14T03:18:23.794Z,31.63
2023-09-14T03:20:53.827Z,32.24
2023-09-14T03:23:22.463Z,31.69
2023-09-14T03:25:52.546Z,32.21
2023-09-14T03:28:20.934Z,31.65
2023-09-14T03:30:49.635Z,31.46
2023-09-14T03:33:17.963Z,31.62
2023-09-14T03:35:46.850Z,31.55
2023-09-14T03:38:17.068Z,31.42
2023-09-14T03:40:45.574Z,31.37
2023-09-14T03:43:15.330Z,31.86
2023-09-14T03:45:44.116Z,31.44
2023-09-14T03:48:12.482Z,31.12
2023-09-14T03:50:41.067Z,31.15
2023-09-14T03:53:11.336Z,31.20
2023-09-14T03:55:40.047Z,31.30
2023-09-14T03:58:08.668Z,31.35
2023-09-14T04:00:38.706Z,31.81
2023-09-14T04:03:07.179Z,31.28
2023-09-14T04:05:35.977Z,31.45
2023-09-14T04:08:04.705Z,31.44
2023-09-14T04:10:33.283Z,31.29
2023-09-14T04:13:26.205Z,32.49
2023-09-14T04:15:56.627Z,31.94
2023-09-14T04:18:25.409Z,31.45
2023-09-14T04:20:54.405Z,31.29
2023-09-14T04:23:22.867Z,31.31
2023-09-14T04:25:52.422Z,31.21
2023-09-14T04:28:22.396Z,31.63
2023-09-14T04:30:52.240Z,31.81
2023-09-14T04:33:22.326Z,31.88
2023-09-14T04:35:50.888Z,31.24
2023-09-14T04:38:19.208Z,31.32
2023-09-14T04:40:49.281Z,31.21
2023-09-14T04:43:17.708Z,31.26
2023-09-14T04:45:47.728Z,31.67
2023-09-14T04:48:17.299Z,31.24
2023-09-14T04:50:47.734Z,31.68
2023-09-14T04:53:16.071Z,31.16
2023-09-14T04:55:46.853Z,31.83
2023-09-14T04:58:15.230Z,31.01
2023-09-14T05:00:44.150Z,30.96
2023-09-14T05:03:12.537Z,30.93
2023-09-14T05:05:41.170Z,30.83
2023-09-14T05:08:10.973Z,31.42
2023-09-14T05:10:39.665Z,30.79
2023-09-14T05:13:08.364Z,30.96
2023-09-14T05:15:37.796Z,30.74
2023-09-14T05:18:06.834Z,30.89
2023-09-14T05:20:35.425Z,30.58
2023-09-14T05:23:04.201Z,30.71
2023-09-14T05:25:34.406Z,31.37
2023-09-14T05:28:02.634Z,31.00
2023-09-14T05:30:31.272Z,30.98
2023-09-14T05:32:59.493Z,30.97
2023-09-14T05:35:28.566Z,30.84
2023-09-14T05:37:56.723Z,30.84
2023-09-14T05:40:25.339Z,30.71
2023-09-14T05:42:55.035Z,31.26
2023-09-14T05:45:24.782Z,30.71
2023-09-14T05:47:53.022Z,30.74
2023-09-14T05:50:21.746Z,30.83
2023-09-14T05:52:50.213Z,30.74
2023-09-14T05:55:19.210Z,30.77
2023-09-14T05:57:49.000Z,30.82
2023-09-14T06:00:20.391Z,31.40
2023-09-14T06:02:49.153Z,31.16
2023-09-14T06:05:25.218Z,31.00
2023-09-14T06:07:55.865Z,31.23
2023-09-14T06:10:24.803Z,30.94
2023-09-14T06:12:53.165Z,31.02
2023-09-14T06:15:23.209Z,31.62
2023-09-14T06:17:51.480Z,30.96
2023-09-14T06:20:20.030Z,30.93
2023-09-14T06:22:48.352Z,30.86
2023-09-14T06:25:17.395Z,31.11
2023-09-14T06:27:46.484Z,31.41
2023-09-14T06:30:15.042Z,31.36
2023-09-14T06:32:44.806Z,32.13
2023-09-14T06:35:13.342Z,31.71
2023-09-14T06:37:42.109Z,31.89
2023-09-14T06:40:13.532Z,32.20
2023-09-14T06:42:43.088Z,33.71
2023-09-14T06:45:13.064Z,32.36
2023-09-14T06:47:41.548Z,32.24
2023-09-14T06:50:13.757Z,32.74
2023-09-14T06:52:42.354Z,32.23
2023-09-14T06:55:11.735Z,32.37
2023-09-14T06:57:40.098Z,32.22
2023-09-14T07:00:15.326Z,32.86
2023-09-14T07:02:43.866Z,32.58
2023-09-14T07:05:14.358Z,33.05
2023-09-14T07:07:43.384Z,32.73
2023-09-14T07:10:12.760Z,32.64
2023-09-14T07:12:41.216Z,32.88
2023-09-14T07:15:11.076Z,33.64
2023-09-14T07:17:39.507Z,33.53
2023-09-14T07:20:09.674Z,34.26
2023-09-14T07:22:39.656Z,34.73
2023-09-14T07:25:10.040Z,34.63
2023-09-14T07:27:38.614Z,34.45
2023-09-14T07:30:08.636Z,34.54
2023-09-14T07:32:37.037Z,34.21
2023-09-14T07:35:06.560Z,34.59
2023-09-14T07:37:34.846Z,34.34
2023-09-14T07:40:05.902Z,35.10
2023-09-14T07:42:34.684Z,34.58
2023-09-14T07:45:03.250Z,34.76
2023-09-14T07:47:31.747Z,34.78
2023-09-14T07:50:00.447Z,35.04
2023-09-14T07:52:29.492Z,35.14
2023-09-14T07:54:58.359Z,35.36
2023-09-14T07:57:28.143Z,36.01
2023-09-14T07:59:56.612Z,35.52
2023-09-14T08:02:25.399Z,35.94
2023-09-14T08:04:54.244Z,36.58
2023-09-14T08:07:22.847Z,36.51
2023-09-14T08:09:51.290Z,36.73
2023-09-14T08:12:19.656Z,36.76
2023-09-14T08:14:49.427Z,37.09
2023-09-14T08:17:17.974Z,36.42
2023-09-14T08:19:46.765Z,36.21
2023-09-14T08:22:16.388Z,35.74
2023-09-14T08:24:45.157Z,35.73
2023-09-14T08:27:13.685Z,36.23
2023-09-14T08:29:44.322Z,36.58
2023-09-14T08:32:14.186Z,37.08
2023-09-14T08:34:42.838Z,36.64
2023-09-14T08:37:12.342Z,36.59
2023-09-14T08:39:41.018Z,35.87
2023-09-14T08:42:09.332Z,35.64
2023-09-14T08:44:37.962Z,35.62
2023-09-14T08:47:06.690Z,35.69
2023-09-14T08:50:01.508Z,26.22
2023-09-14T08:52:30.169Z,25.84
2023-09-14T08:54:58.962Z,26.00
2023-09-14T08:57:28.033Z,25.74
2023-09-14T08:59:58.247Z,26.06
2023-09-14T09:02:27.540Z,25.47
2023-09-14T09:04:55.898Z,24.99
2023-09-14T09:07:26.121Z,25.45
2023-09-14T09:09:54.361Z,24.58
2023-09-14T09:12:22.915Z,24.84
2023-09-14T09:14:51.936Z,25.27
2023-09-14T09:17:20.790Z,25.27
2023-09-14T09:19:49.917Z,25.25
2023-09-14T09:22:19.978Z,25.23
2023-09-14T09:24:49.967Z,25.53
2023-09-14T09:27:28.051Z,26.71
2023-09-14T09:29:59.938Z,27.93
2023-09-14T09:32:28.980Z,29.27
2023-09-14T09:34:57.395Z,30.76
2023-09-14T09:37:26.756Z,31.35
2023-09-14T09:39:56.808Z,31.63
2023-09-14T09:42:25.953Z,30.72
2023-09-14T09:45:00.248Z,30.46
2023-09-14T09:47:29.763Z,29.13
2023-09-14T09:49:58.880Z,30.56
2023-09-14T09:52:28.855Z,33.40
2023-09-14T09:54:58.839Z,35.41
2023-09-14T09:57:30.515Z,36.87
2023-09-14T09:59:59.117Z,35.29
2023-09-14T10:02:32.590Z,33.63
2023-09-14T10:05:01.260Z,31.56
2023-09-14T10:07:29.947Z,31.88
2023-09-14T10:09:59.956Z,32.66
2023-09-14T10:12:33.118Z,31.66
2023-09-14T10:15:01.756Z,30.56
2023-09-14T10:17:32.343Z,30.48
2023-09-14T10:20:01.351Z,30.28
2023-09-14T10:22:30.708Z,30.60
2023-09-14T10:25:01.040Z,31.61
2023-09-14T10:27:29.742Z,32.65
2023-09-14T10:29:58.169Z,31.27
2023-09-14T10:32:27.835Z,32.80
2023-09-14T10:35:06.359Z,33.48
2023-09-14T10:37:36.531Z,32.69
2023-09-14T10:40:09.634Z,32.57
2023-09-14T10:42:38.183Z,31.36
2023-09-14T10:45:07.847Z,31.36
2023-09-14T10:47:38.508Z,31.08
2023-09-14T10:50:08.501Z,31.02
2023-09-14T10:52:38.689Z,30.64
2023-09-14T10:55:11.086Z,31.06
2023-09-14T10:57:41.655Z,30.89
2023-09-14T11:00:25.294Z,32.49
2023-09-14T11:03:17.976Z,31.89
2023-09-14T11:05:50.086Z,31.32
2023-09-14T11:08:21.451Z,31.17
2023-09-14T11:11:02.051Z,30.62
2023-09-14T11:13:37.195Z,29.27
2023-09-14T11:16:09.445Z,28.40
2023-09-14T11:18:54.665Z,28.34
2023-09-14T11:21:45.801Z,28.27
2023-09-14T11:24:15.169Z,26.90
2023-09-14T11:26:50.135Z,27.56
2023-09-14T11:29:24.397Z,27.50
2023-09-14T11:32:06.426Z,27.58
2023-09-14T11:34:42.946Z,26.88
2023-09-14T11:37:18.629Z,26.63
2023-09-14T11:39:58.956Z,26.76
2023-09-14T11:42:34.633Z,26.23
2023-09-14T11:45:12.665Z,26.35
2023-09-14T11:47:46.506Z,25.53
2023-09-14T11:50:16.573Z,25.68
2023-09-14T11:52:46.174Z,25.79
2023-09-14T11:55:15.957Z,25.92
2023-09-14T11:57:45.904Z,25.80
2023-09-14T12:00:15.471Z,25.56
2023-09-14T12:02:43.894Z,25.22
2023-09-14T12:05:13.043Z,25.21
2023-09-14T12:07:41.489Z,25.08
2023-09-14T12:10:20.430Z,26.14
2023-09-14T12:12:50.376Z,25.17
2023-09-14T12:15:20.016Z,24.57
2023-09-14T12:17:52.316Z,24.67
2023-09-14T12:20:21.573Z,23.99
2023-09-14T12:22:50.046Z,23.72
2023-09-14T12:25:19.684Z,24.13
2023-09-14T12:27:49.630Z,24.15
2023-09-14T12:30:18.448Z,23.82
2023-09-14T12:32:46.943Z,24.04
2023-09-14T12:35:17.606Z,24.37
2023-09-14T12:37:46.027Z,24.47
2023-09-14T12:40:15.007Z,24.51
2023-09-14T12:42:44.425Z,24.77
2023-09-14T12:45:17.149Z,25.44
2023-09-14T12:47:47.963Z,25.45
2023-09-14T12:50:18.138Z,25.10
2023-09-14T12:52:46.777Z,25.30
2023-09-14T12:55:17.345Z,25.65
2023-09-14T12:57:48.826Z,25.56
2023-09-14T13:00:19.404Z,25.88
2023-09-14T13:02:49.555Z,25.93
2023-09-14T13:05:19.858Z,25.67
2023-09-14T13:07:49.662Z,25.67
2023-09-14T13:10:21.193Z,26.28
2023-09-14T13:12:54.635Z,26.46
2023-09-14T13:15:26.132Z,26.12
2023-09-14T13:17:55.999Z,25.75
2023-09-14T13:20:25.572Z,25.51
2023-09-14T13:22:53.918Z,25.59
2023-09-14T13:25:25.331Z,25.81
2023-09-14T13:27:54.275Z,25.86
2023-09-14T13:30:28.577Z,26.10
2023-09-14T13:32:58.209Z,25.19
2023-09-14T13:35:27.501Z,25.07
2023-09-14T13:37:58.213Z,24.70
2023-09-14T13:40:29.466Z,24.76
2023-09-14T13:42:59.630Z,24.79
2023-09-14T13:45:30.573Z,25.29
2023-09-14T13:47:59.021Z,26.41
2023-09-14T13:50:28.002Z,24.89
2023-09-14T13:52:56.240Z,24.96
2023-09-14T13:55:24.793Z,24.92
2023-09-14T13:57:53.183Z,24.82
2023-09-14T14:00:23.623Z,25.51
2023-09-14T14:02:56.545Z,25.75
2023-09-14T14:05:25.390Z,25.09
2023-09-14T14:07:53.741Z,25.07
2023-09-14T14:10:22.293Z,24.76
2023-09-14T14:12:50.880Z,24.55
2023-09-14T14:15:19.606Z,24.27
2023-09-14T14:17:48.184Z,24.31
2023-09-14T14:20:18.374Z,24.59
2023-09-14T14:22:46.528Z,23.87
2023-09-14T14:25:15.300Z,23.69
2023-09-14T14:27:43.954Z,23.74
2023-09-14T14:30:13.957Z,24.07
2023-09-14T14:32:42.653Z,23.92
2023-09-14T14:35:12.880Z,23.97
2023-09-14T14:37:42.571Z,24.38
2023-09-14T14:40:28.685Z,24.19
2023-09-14T14:43:02.491Z,24.11
2023-09-14T14:45:31.249Z,24.21
2023-09-14T14:48:00.093Z,24.18
2023-09-14T14:50:28.793Z,24.37
2023-09-14T14:52:58.591Z,24.90
2023-09-14T14:55:27.227Z,24.42
2023-09-14T14:57:55.874Z,24.54
2023-09-14T15:00:24.671Z,24.83
2023-09-14T15:02:53.066Z,24.91
2023-09-14T15:05:21.768Z,25.11
2023-09-14T15:07:50.115Z,24.83
2023-09-14T15:10:20.388Z,25.09
2023-09-14T15:12:50.626Z,24.25
2023-09-14T15:15:19.344Z,23.91
2023-09-14T15:17:47.898Z,23.84
2023-09-14T15:20:16.659Z,23.90
2023-09-14T15:22:45.510Z,23.61
2023-09-14T15:25:14.469Z,23.35
2023-09-14T15:27:44.186Z,24.02
2023-09-14T15:30:13.746Z,23.70
2023-09-14T15:32:44.468Z,23.88
2023-09-14T15:35:14.491Z,23.44
2023-09-14T15:37:43.083Z,23.18
2023-09-14T15:40:15.130Z,23.48
2023-09-14T15:42:46.259Z,23.60
2023-09-14T15:45:15.123Z,23.15
2023-09-14T15:47:45.624Z,23.04
2023-09-14T15:50:14.406Z,23.09
2023-09-14T15:52:42.962Z,22.88
2023-09-14T15:55:29.017Z,22.97
2023-09-14T15:58:01.743Z,23.42
2023-09-14T16:00:30.356Z,22.90
2023-09-14T16:02:58.917Z,22.81
2023-09-14T16:05:28.305Z,22.94
2023-09-14T16:08:07.237Z,24.03
2023-09-14T16:10:36.219Z,22.81
2023-09-14T16:13:06.415Z,22.97
2023-09-14T16:15:35.123Z,22.21
2023-09-14T16:18:03.607Z,22.06
2023-09-14T16:20:32.550Z,22.01
2023-09-14T16:23:01.158Z,21.83
2023-09-14T16:25:29.843Z,21.70
2023-09-14T16:27:58.192Z,21.59
2023-09-14T16:30:28.513Z,22.21
2023-09-14T16:32:57.049Z,21.69
2023-09-14T16:35:25.655Z,21.72
2023-09-14T16:37:54.008Z,21.75
2023-09-14T16:40:22.596Z,21.81
2023-09-14T16:42:51.106Z,21.70
2023-09-14T16:45:20.058Z,21.75
2023-09-14T16:47:50.278Z,22.27
2023-09-14T16:50:18.913Z,21.67
2023-09-14T16:52:47.368Z,21.51
2023-09-14T16:55:17.633Z,21.70
2023-09-14T16:57:48.232Z,21.78
2023-09-14T17:00:17.747Z,21.55
2023-09-14T17:02:46.832Z,21.91
2023-09-14T17:05:18.335Z,22.19
2023-09-14T17:07:48.909Z,21.37
2023-09-14T17:10:21.212Z,22.04
2023-09-14T17:12:52.667Z,21.33
2023-09-14T17:15:21.150Z,21.23
2023-09-14T17:17:49.569Z,21.15
2023-09-14T17:20:22.510Z,21.59
2023-09-14T17:22:50.953Z,20.75
2023-09-14T17:25:19.650Z,20.65
2023-09-14T17:27:48.148Z,20.66
2023-09-14T17:30:16.965Z,20.69
2023-09-14T17:32:46.397Z,20.87
2023-09-14T17:35:15.861Z,20.90
2023-09-14T17:37:46.058Z,21.56
2023-09-14T17:40:14.746Z,21.21
2023-09-14T17:42:43.050Z,21.16
2023-09-14T17:45:12.530Z,21.45
2023-09-14T17:47:42.682Z,21.12
2023-09-14T17:50:12.543Z,21.14
2023-09-14T17:52:41.669Z,21.35
2023-09-14T17:55:12.256Z,21.47
2023-09-14T17:57:41.621Z,20.82
2023-09-14T18:00:14.694Z,20.95
2023-09-14T18:02:43.493Z,20.35
2023-09-14T18:05:12.327Z,20.53
2023-09-14T18:07:40.904Z,20.86
2023-09-14T18:10:13.863Z,21.69
2023-09-14T18:12:43.043Z,21.37
2023-09-14T18:15:12.524Z,21.47
2023-09-14T18:17:41.052Z,21.40
2023-09-14T18:20:11.909Z,21.75
2023-09-14T18:22:42.428Z,21.86
2023-09-14T18:25:14.149Z,22.41
2023-09-14T18:27:42.816Z,21.85
2023-09-14T18:30:13.982Z,22.20
2023-09-14T18:32:53.134Z,23.03
2023-09-14T18:35:22.645Z,22.10
2023-09-14T18:37:52.395Z,22.30
2023-09-14T18:40:23.635Z,22.67
2023-09-14T18:42:56.309Z,21.97
2023-09-14T18:45:25.662Z,22.22
2023-09-14T18:47:55.117Z,22.11
2023-09-14T18:50:23.816Z,22.13
2023-09-14T18:52:52.698Z,22.13
2023-09-14T18:55:24.600Z,22.61
2023-09-14T18:57:53.849Z,22.10
2023-09-14T19:00:22.777Z,22.02
2023-09-14T19:02:51.357Z,22.09
2023-09-14T19:05:20.119Z,22.01
2023-09-14T19:07:48.524Z,21.87
2023-09-14T19:10:17.260Z,21.97
2023-09-14T19:12:47.201Z,22.40
2023-09-14T19:15:17.569Z,22.42
2023-09-14T19:17:46.478Z,21.83
2023-09-14T19:20:16.416Z,21.83
2023-09-14T19:22:44.626Z,21.39
2023-09-14T19:25:13.261Z,21.32
2023-09-14T19:27:41.743Z,21.23
2023-09-14T19:30:12.691Z,21.92
2023-09-14T19:32:41.830Z,21.36
2023-09-14T19:35:11.615Z,21.40
2023-09-14T19:37:40.352Z,21.40
2023-09-14T19:40:10.211Z,21.51
2023-09-14T19:42:39.487Z,21.26
2023-09-14T19:45:08.946Z,21.65
2023-09-14T19:47:41.572Z,22.05
2023-09-14T19:50:11.010Z,21.72
2023-09-14T19:52:39.362Z,21.06
2023-09-14T19:55:08.682Z,21.09
2023-09-14T19:57:37.168Z,20.74
2023-09-14T20:00:07.154Z,20.88
2023-09-14T20:02:36.113Z,20.48
2023-09-14T20:05:07.742Z,20.99
2023-09-14T20:07:37.739Z,20.28
2023-09-14T20:10:07.898Z,20.40
2023-09-14T20:12:36.436Z,20.37
2023-09-14T20:15:05.736Z,20.40
2023-09-14T20:17:35.180Z,20.23
2023-09-14T20:20:04.616Z,20.18
2023-09-14T20:22:34.757Z,20.75
2023-09-14T20:25:03.939Z,20.21
2023-09-14T20:27:33.079Z,20.13
2023-09-14T20:30:01.855Z,20.12
2023-09-14T20:32:32.903Z,20.00
2023-09-14T20:35:01.703Z,20.09
2023-09-14T20:37:30.138Z,20.16
2023-09-14T20:40:08.982Z,20.69
2023-09-14T20:42:37.366Z,20.06
2023-09-14T20:45:07.846Z,20.24
2023-09-14T20:47:36.204Z,20.10
2023-09-14T20:50:06.139Z,20.17
2023-09-14T20:52:34.779Z,20.04
2023-09-14T20:55:05.792Z,20.47
2023-09-14T20:57:34.302Z,19.74
2023-09-14T21:00:03.184Z,19.66
2023-09-14T21:02:32.389Z,19.64
2023-09-14T21:05:01.788Z,19.66
2023-09-14T21:07:30.062Z,19.45
2023-09-14T21:09:58.899Z,19.53
2023-09-14T21:12:28.748Z,20.11
2023-09-14T21:14:57.557Z,19.56
2023-09-14T21:17:26.699Z,19.36
2023-09-14T21:19:56.885Z,19.30
2023-09-14T21:22:25.194Z,19.31
2023-09-14T21:24:54.387Z,19.58
2023-09-14T21:27:22.655Z,19.36
2023-09-14T21:29:52.680Z,19.86
2023-09-14T21:32:21.113Z,19.09
2023-09-14T21:34:49.820Z,18.95
2023-09-14T21:37:18.617Z,18.82
2023-09-14T21:39:47.463Z,18.78
2023-09-14T21:42:15.977Z,18.71
2023-09-14T21:44:44.633Z,18.77
2023-09-14T21:47:14.326Z,19.22
2023-09-14T21:49:44.056Z,19.07
2023-09-14T21:52:13.086Z,18.79
2023-09-14T21:54:42.144Z,18.63
2023-09-14T21:57:10.714Z,18.44
2023-09-14T21:59:42.847Z,18.79
2023-09-14T22:02:11.842Z,18.83
2023-09-14T22:04:41.862Z,19.12
2023-09-14T22:07:10.762Z,18.59
2023-09-14T22:09:41.821Z,18.54
2023-09-14T22:12:10.170Z,18.60
2023-09-14T22:14:38.672Z,18.43
2023-09-14T22:17:09.549Z,18.60
2023-09-14T22:19:37.856Z,20.29
2023-09-14T22:22:08.012Z,19.26
2023-09-14T22:24:36.797Z,18.58
2023-09-14T22:27:06.197Z,18.82
2023-09-14T22:29:36.163Z,20.07
2023-09-14T22:32:05.081Z,18.51
2023-09-14T22:34:33.640Z,18.44
2023-09-14T22:37:02.100Z,18.43
2023-09-14T22:39:32.235Z,18.83
2023-09-14T22:42:00.500Z,18.30
2023-09-14T22:44:29.018Z,18.38
2023-09-14T22:46:57.343Z,18.27
2023-09-14T22:49:26.134Z,18.24
2023-09-14T22:51:54.556Z,18.06
2023-09-14T22:54:23.488Z,18.14
2023-09-14T22:56:53.160Z,18.54
2023-09-14T22:59:21.615Z,17.84
2023-09-14T23:01:50.172Z,17.88
2023-09-14T23:04:18.991Z,17.78
2023-09-14T23:06:47.449Z,17.60
2023-09-14T23:09:16.384Z,17.53
2023-09-14T23:11:44.950Z,17.66
2023-09-14T23:14:16.290Z,18.14
2023-09-14T23:16:46.236Z,18.01
2023-09-14T23:19:15.816Z,17.52
2023-09-14T23:21:44.155Z,17.46
2023-09-14T23:24:12.917Z,17.06
2023-09-14T23:26:42.795Z,17.36
2023-09-14T23:29:12.963Z,17.64
2023-09-14T23:31:44.019Z,18.10
2023-09-14T23:34:13.539Z,19.08
2023-09-14T23:36:43.281Z,17.59
2023-09-14T23:39:13.659Z,17.45
2023-09-14T23:41:42.608Z,17.43
2023-09-14T23:44:12.967Z,17.41
2023-09-14T23:46:43.666Z,17.89
2023-09-14T23:49:15.270Z,17.76
2023-09-14T23:51:44.930Z,17.59
2023-09-14T23:54:14.463Z,17.62
2023-09-14T23:56:43.679Z,17.34
2023-09-14T23:59:12.414Z,17.34
